sensor_id;sensor_type;location;lat;lon;timestamp;pressure;altitude;pressure_sealevel;temperature;humidity
78679;BME280;67994;59.334;13.528;2023-06-10T00:00:00;102200.0;;;13.4;52.3
78679;BME280;67994;59.334;13.528;2023-06-10T00:01:00;102200.0;;;13.3;52.4
78679;BME280;67994;59.334;13.528;2023-06-10T00:02:00;102200.0;;;13.3;52.4
78679;BME280;67994;59.334;13.528;2023-06-10T00:03:00;102200.0;;;13.3;52.3
78679;BME280;67994;59.334;13.528;2023-06-10T00:04:00;102200.0;;;13.4;52.1
78679;BME280;67994;59.334;13.528;2023-06-10T00:05:00;102200.0;;;13.3;52.2
78679;BME280;67994;59.334;13.528;2023-06-10T00:06:00;102200.0;;;13.2;52.3
78679;BME280;67994;59.334;13.528;2023-06-10T00:07:00;102200.0;;;13.2;52.0
78679;BME280;67994;59.334;13.528;2023-06-10T00:08:00;102200.0;;;13.2;52.1
78679;BME280;67994;59.334;13.528;2023-06-10T00:09:00;102200.0;;;13.1;52.4
78679;BME280;67994;59.334;13.528;2023-06-10T00:10:00;102200.0;;;13.2;52.2
78679;BME280;67994;59.334;13.528;2023-06-10T00:11:00;102200.0;;;13.1;52.1
78679;BME280;67994;59.334;13.528;2023-06-10T00:12:00;102200.0;;;13.1;52.0
78679;BME280;67994;59.334;13.528;2023-06-10T00:13:04;102200.0;;;13.1;52.1
78679;BME280;67994;59.334;13.528;2023-06-10T00:14:00;102200.0;;;13.1;52.0
78679;BME280;67994;59.334;13.528;2023-06-10T00:15:00;102200.0;;;13.2;51.7
78679;BME280;67994;59.334;13.528;2023-06-10T00:16:00;102200.0;;;13.2;51.7
78679;BME280;67994;59.334;13.528;2023-06-10T00:17:00;102200.0;;;13.1;52.0
78679;BME280;67994;59.334;13.528;2023-06-10T00:18:00;102200.0;;;13.1;52.0
78679;BME280;67994;59.334;13.528;2023-06-10T00:19:00;102200.0;;;13.0;52.0
78679;BME280;67994;59.334;13.528;2023-06-10T00:20:00;102200.0;;;13.1;51.7
78679;BME280;67994;59.334;13.528;2023-06-10T00:21:00;102200.0;;;13.1;51.7
78679;BME280;67994;59.334;13.528;2023-06-10T00:22:00;102200.0;;;13.0;51.7
78679;BME280;67994;59.334;13.528;2023-06-10T00:23:00;102200.0;;;13.0;51.8
78679;BME280;67994;59.334;13.528;2023-06-10T00:24:00;102200.0;;;13.0;51.9
78679;BME280;67994;59.334;13.528;2023-06-10T00:25:00;102200.0;;;13.0;51.8
78679;BME280;67994;59.334;13.528;2023-06-10T00:26:00;102200.0;;;13.0;51.8
78679;BME280;67994;59.334;13.528;2023-06-10T00:27:00;102300.0;;;12.9;51.8
78679;BME280;67994;59.334;13.528;2023-06-10T00:28:00;102300.0;;;12.9;52.1
78679;BME280;67994;59.334;13.528;2023-06-10T00:29:00;102300.0;;;12.8;52.1
78679;BME280;67994;59.334;13.528;2023-06-10T00:30:01;102300.0;;;12.9;52.2
78679;BME280;67994;59.334;13.528;2023-06-10T00:31:00;102300.0;;;12.9;51.9
78679;BME280;67994;59.334;13.528;2023-06-10T00:32:00;102300.0;;;12.9;52.0
78679;BME280;67994;59.334;13.528;2023-06-10T00:33:00;102300.0;;;12.9;52.1
78679;BME280;67994;59.334;13.528;2023-06-10T00:34:00;102300.0;;;12.8;52.5
78679;BME280;67994;59.334;13.528;2023-06-10T00:35:00;102300.0;;;12.8;52.3
78679;BME280;67994;59.334;13.528;2023-06-10T00:36:00;102300.0;;;12.8;52.6
78679;BME280;67994;59.334;13.528;2023-06-10T00:37:00;102300.0;;;12.8;52.6
78679;BME280;67994;59.334;13.528;2023-06-10T00:38:00;102300.0;;;12.8;52.6
78679;BME280;67994;59.334;13.528;2023-06-10T00:39:00;102300.0;;;12.7;52.9
78679;BME280;67994;59.334;13.528;2023-06-10T00:40:00;102300.0;;;12.7;52.9
78679;BME280;67994;59.334;13.528;2023-06-10T00:41:00;102300.0;;;12.7;52.7
78679;BME280;67994;59.334;13.528;2023-06-10T00:42:00;102300.0;;;12.7;52.8
78679;BME280;67994;59.334;13.528;2023-06-10T00:43:00;102300.0;;;12.7;52.3
78679;BME280;67994;59.334;13.528;2023-06-10T00:44:00;102300.0;;;12.6;52.6
78679;BME280;67994;59.334;13.528;2023-06-10T00:45:00;102300.0;;;12.6;52.5
78679;BME280;67994;59.334;13.528;2023-06-10T00:46:00;102300.0;;;12.5;52.9
78679;BME280;67994;59.334;13.528;2023-06-10T00:47:00;102300.0;;;12.6;52.6
78679;BME280;67994;59.334;13.528;2023-06-10T00:48:00;102300.0;;;12.6;52.7
78679;BME280;67994;59.334;13.528;2023-06-10T00:49:00;102300.0;;;12.6;52.7
78679;BME280;67994;59.334;13.528;2023-06-10T00:50:01;102300.0;;;12.5;53.1
78679;BME280;67994;59.334;13.528;2023-06-10T00:51:00;102300.0;;;12.5;52.8
78679;BME280;67994;59.334;13.528;2023-06-10T00:52:01;102300.0;;;12.5;52.4
78679;BME280;67994;59.334;13.528;2023-06-10T00:53:01;102300.0;;;12.4;52.6
78679;BME280;67994;59.334;13.528;2023-06-10T00:54:00;102300.0;;;12.5;52.5
78679;BME280;67994;59.334;13.528;2023-06-10T00:55:00;102300.0;;;12.4;52.5
78679;BME280;67994;59.334;13.528;2023-06-10T00:56:00;102300.0;;;12.5;52.2
78679;BME280;67994;59.334;13.528;2023-06-10T00:57:01;102300.0;;;12.5;51.8
78679;BME280;67994;59.334;13.528;2023-06-10T00:58:00;102300.0;;;12.4;52.1
78679;BME280;67994;59.334;13.528;2023-06-10T00:59:00;102300.0;;;12.4;51.6
78679;BME280;67994;59.334;13.528;2023-06-10T01:00:00;102300.0;;;12.4;51.6
78679;BME280;67994;59.334;13.528;2023-06-10T01:01:00;102300.0;;;12.4;51.3
78679;BME280;67994;59.334;13.528;2023-06-10T01:02:00;102300.0;;;12.5;51.4
78679;BME280;67994;59.334;13.528;2023-06-10T01:03:00;102300.0;;;12.4;51.3
78679;BME280;67994;59.334;13.528;2023-06-10T01:04:00;102300.0;;;12.4;51.6
78679;BME280;67994;59.334;13.528;2023-06-10T01:05:00;102300.0;;;12.3;51.5
78679;BME280;67994;59.334;13.528;2023-06-10T01:06:06;102300.0;;;12.3;51.4
78679;BME280;67994;59.334;13.528;2023-06-10T01:07:10;102300.0;;;12.3;51.2
78679;BME280;67994;59.334;13.528;2023-06-10T01:08:03;102300.0;;;12.4;51.0
78679;BME280;67994;59.334;13.528;2023-06-10T01:09:05;102300.0;;;12.3;51.3
78679;BME280;67994;59.334;13.528;2023-06-10T01:10:02;102300.0;;;12.3;51.4
78679;BME280;67994;59.334;13.528;2023-06-10T01:11:01;102300.0;;;12.4;51.3
78679;BME280;67994;59.334;13.528;2023-06-10T01:12:05;102300.0;;;12.3;51.6
78679;BME280;67994;59.334;13.528;2023-06-10T01:13:02;102300.0;;;12.3;51.5
78679;BME280;67994;59.334;13.528;2023-06-10T01:14:00;102300.0;;;12.3;51.6
78679;BME280;67994;59.334;13.528;2023-06-10T01:15:00;102300.0;;;12.3;51.6
78679;BME280;67994;59.334;13.528;2023-06-10T01:16:00;102300.0;;;12.3;51.6
78679;BME280;67994;59.334;13.528;2023-06-10T01:17:00;102300.0;;;12.3;51.7
78679;BME280;67994;59.334;13.528;2023-06-10T01:18:02;102300.0;;;12.3;51.8
78679;BME280;67994;59.334;13.528;2023-06-10T01:19:00;102300.0;;;12.3;51.8
78679;BME280;67994;59.334;13.528;2023-06-10T01:20:00;102300.0;;;12.3;52.0
78679;BME280;67994;59.334;13.528;2023-06-10T01:21:01;102300.0;;;12.3;51.9
78679;BME280;67994;59.334;13.528;2023-06-10T01:22:00;102300.0;;;12.2;52.2
78679;BME280;67994;59.334;13.528;2023-06-10T01:23:01;102300.0;;;12.2;52.4
78679;BME280;67994;59.334;13.528;2023-06-10T01:24:00;102300.0;;;12.2;52.4
78679;BME280;67994;59.334;13.528;2023-06-10T01:25:00;102300.0;;;12.1;52.6
78679;BME280;67994;59.334;13.528;2023-06-10T01:26:02;102300.0;;;12.1;52.7
78679;BME280;67994;59.334;13.528;2023-06-10T01:27:05;102300.0;;;12.1;52.6
78679;BME280;67994;59.334;13.528;2023-06-10T01:28:04;102300.0;;;12.1;52.7
78679;BME280;67994;59.334;13.528;2023-06-10T01:29:05;102300.0;;;12.1;52.6
78679;BME280;67994;59.334;13.528;2023-06-10T01:30:04;102300.0;;;12.1;52.9
78679;BME280;67994;59.334;13.528;2023-06-10T01:31:07;102300.0;;;12.0;53.3
78679;BME280;67994;59.334;13.528;2023-06-10T01:32:04;102300.0;;;12.0;53.0
78679;BME280;67994;59.334;13.528;2023-06-10T01:33:02;102300.0;;;12.0;53.1
78679;BME280;67994;59.334;13.528;2023-06-10T01:34:01;102300.0;;;12.0;53.1
78679;BME280;67994;59.334;13.528;2023-06-10T01:35:01;102300.0;;;12.0;53.1
78679;BME280;67994;59.334;13.528;2023-06-10T01:36:02;102300.0;;;12.0;53.2
78679;BME280;67994;59.334;13.528;2023-06-10T01:37:01;102300.0;;;11.9;53.3
78679;BME280;67994;59.334;13.528;2023-06-10T01:38:01;102300.0;;;11.9;53.3
78679;BME280;67994;59.334;13.528;2023-06-10T01:39:02;102300.0;;;12.0;53.0
78679;BME280;67994;59.334;13.528;2023-06-10T01:40:02;102300.0;;;12.0;53.2
78679;BME280;67994;59.334;13.528;2023-06-10T01:41:00;102300.0;;;12.0;53.1
78679;BME280;67994;59.334;13.528;2023-06-10T01:42:01;102300.0;;;11.9;53.3
78679;BME280;67994;59.334;13.528;2023-06-10T01:43:00;102300.0;;;12.0;53.0
78679;BME280;67994;59.334;13.528;2023-06-10T01:44:00;102300.0;;;11.8;53.3
78679;BME280;67994;59.334;13.528;2023-06-10T01:45:00;102300.0;;;11.9;53.2
78679;BME280;67994;59.334;13.528;2023-06-10T01:46:00;102300.0;;;11.9;52.8
78679;BME280;67994;59.334;13.528;2023-06-10T01:47:00;102300.0;;;11.9;52.7
78679;BME280;67994;59.334;13.528;2023-06-10T01:48:00;102300.0;;;11.9;52.6
78679;BME280;67994;59.334;13.528;2023-06-10T01:49:00;102300.0;;;11.9;52.6
78679;BME280;67994;59.334;13.528;2023-06-10T01:50:00;102300.0;;;11.9;52.8
78679;BME280;67994;59.334;13.528;2023-06-10T01:51:00;102300.0;;;11.8;52.8
78679;BME280;67994;59.334;13.528;2023-06-10T01:52:00;102300.0;;;11.8;52.7
78679;BME280;67994;59.334;13.528;2023-06-10T01:53:00;102300.0;;;11.9;52.6
78679;BME280;67994;59.334;13.528;2023-06-10T01:54:00;102300.0;;;11.8;52.6
78679;BME280;67994;59.334;13.528;2023-06-10T01:55:00;102300.0;;;11.8;52.8
78679;BME280;67994;59.334;13.528;2023-06-10T01:56:00;102300.0;;;11.8;52.8
78679;BME280;67994;59.334;13.528;2023-06-10T01:57:00;102300.0;;;11.8;52.8
78679;BME280;67994;59.334;13.528;2023-06-10T01:58:00;102300.0;;;11.8;52.8
78679;BME280;67994;59.334;13.528;2023-06-10T01:59:00;102300.0;;;11.8;52.8
78679;BME280;67994;59.334;13.528;2023-06-10T02:00:00;102300.0;;;11.8;52.6
78679;BME280;67994;59.334;13.528;2023-06-10T02:01:00;102300.0;;;11.8;52.5
78679;BME280;67994;59.334;13.528;2023-06-10T02:02:00;102300.0;;;11.8;52.7
78679;BME280;67994;59.334;13.528;2023-06-10T02:03:00;102300.0;;;11.8;52.8
78679;BME280;67994;59.334;13.528;2023-06-10T02:04:00;102300.0;;;11.8;52.7
78679;BME280;67994;59.334;13.528;2023-06-10T02:05:00;102300.0;;;11.8;52.8
78679;BME280;67994;59.334;13.528;2023-06-10T02:06:00;102300.0;;;11.8;52.9
78679;BME280;67994;59.334;13.528;2023-06-10T02:07:00;102300.0;;;11.8;52.8
78679;BME280;67994;59.334;13.528;2023-06-10T02:08:00;102300.0;;;11.8;53.1
78679;BME280;67994;59.334;13.528;2023-06-10T02:09:00;102300.0;;;11.7;53.1
78679;BME280;67994;59.334;13.528;2023-06-10T02:10:00;102300.0;;;11.7;53.1
78679;BME280;67994;59.334;13.528;2023-06-10T02:11:00;102300.0;;;11.7;53.2
78679;BME280;67994;59.334;13.528;2023-06-10T02:12:00;102300.0;;;11.7;53.0
78679;BME280;67994;59.334;13.528;2023-06-10T02:13:00;102300.0;;;11.8;52.7
78679;BME280;67994;59.334;13.528;2023-06-10T02:14:00;102300.0;;;11.8;53.2
78679;BME280;67994;59.334;13.528;2023-06-10T02:15:00;102300.0;;;11.8;53.0
78679;BME280;67994;59.334;13.528;2023-06-10T02:16:00;102300.0;;;11.8;53.2
78679;BME280;67994;59.334;13.528;2023-06-10T02:17:00;102300.0;;;11.8;53.2
78679;BME280;67994;59.334;13.528;2023-06-10T02:18:00;102300.0;;;11.7;53.7
78679;BME280;67994;59.334;13.528;2023-06-10T02:19:00;102300.0;;;11.7;53.8
78679;BME280;67994;59.334;13.528;2023-06-10T02:20:00;102300.0;;;11.7;53.9
78679;BME280;67994;59.334;13.528;2023-06-10T02:21:00;102400.0;;;11.7;54.0
78679;BME280;67994;59.334;13.528;2023-06-10T02:22:00;102400.0;;;11.7;54.2
78679;BME280;67994;59.334;13.528;2023-06-10T02:23:00;102400.0;;;11.7;54.3
78679;BME280;67994;59.334;13.528;2023-06-10T02:24:00;102400.0;;;11.7;54.7
78679;BME280;67994;59.334;13.528;2023-06-10T02:25:00;102400.0;;;11.7;54.9
78679;BME280;67994;59.334;13.528;2023-06-10T02:26:00;102400.0;;;11.7;54.9
78679;BME280;67994;59.334;13.528;2023-06-10T02:27:00;102400.0;;;11.7;55.1
78679;BME280;67994;59.334;13.528;2023-06-10T02:28:00;102400.0;;;11.8;55.1
78679;BME280;67994;59.334;13.528;2023-06-10T02:29:00;102400.0;;;12.0;54.9
78679;BME280;67994;59.334;13.528;2023-06-10T02:30:00;102400.0;;;12.1;54.6
78679;BME280;67994;59.334;13.528;2023-06-10T02:31:00;102400.0;;;12.1;54.7
78679;BME280;67994;59.334;13.528;2023-06-10T02:32:02;102400.0;;;12.4;54.3
78679;BME280;67994;59.334;13.528;2023-06-10T02:33:00;102400.0;;;12.7;53.7
78679;BME280;67994;59.334;13.528;2023-06-10T02:34:00;102400.0;;;12.7;53.8
78679;BME280;67994;59.334;13.528;2023-06-10T02:35:00;102400.0;;;12.8;53.5
78679;BME280;67994;59.334;13.528;2023-06-10T02:36:00;102400.0;;;12.7;54.0
78679;BME280;67994;59.334;13.528;2023-06-10T02:37:00;102400.0;;;12.9;53.4
78679;BME280;67994;59.334;13.528;2023-06-10T02:38:00;102400.0;;;13.0;53.1
78679;BME280;67994;59.334;13.528;2023-06-10T02:39:00;102400.0;;;13.0;53.0
78679;BME280;67994;59.334;13.528;2023-06-10T02:40:00;102400.0;;;13.0;53.0
78679;BME280;67994;59.334;13.528;2023-06-10T02:41:00;102400.0;;;12.9;53.4
78679;BME280;67994;59.334;13.528;2023-06-10T02:42:00;102400.0;;;13.1;53.7
78679;BME280;67994;59.334;13.528;2023-06-10T02:43:00;102400.0;;;13.4;53.1
78679;BME280;67994;59.334;13.528;2023-06-10T02:44:00;102400.0;;;13.8;52.4
78679;BME280;67994;59.334;13.528;2023-06-10T02:45:00;102400.0;;;14.0;51.9
78679;BME280;67994;59.334;13.528;2023-06-10T02:46:00;102400.0;;;14.2;51.4
78679;BME280;67994;59.334;13.528;2023-06-10T02:47:00;102400.0;;;14.0;52.0
78679;BME280;67994;59.334;13.528;2023-06-10T02:48:00;102400.0;;;14.0;51.8
78679;BME280;67994;59.334;13.528;2023-06-10T02:49:00;102400.0;;;13.7;52.5
78679;BME280;67994;59.334;13.528;2023-06-10T02:50:00;102400.0;;;13.6;52.8
78679;BME280;67994;59.334;13.528;2023-06-10T02:51:00;102400.0;;;13.4;53.4
78679;BME280;67994;59.334;13.528;2023-06-10T02:52:00;102400.0;;;13.1;54.1
78679;BME280;67994;59.334;13.528;2023-06-10T02:53:00;102400.0;;;13.2;54.1
78679;BME280;67994;59.334;13.528;2023-06-10T02:54:00;102400.0;;;13.3;54.3
78679;BME280;67994;59.334;13.528;2023-06-10T02:55:00;102400.0;;;13.5;54.1
78679;BME280;67994;59.334;13.528;2023-06-10T02:56:00;102400.0;;;13.8;53.7
78679;BME280;67994;59.334;13.528;2023-06-10T02:57:00;102400.0;;;14.1;53.4
78679;BME280;67994;59.334;13.528;2023-06-10T02:58:00;102400.0;;;14.4;52.8
78679;BME280;67994;59.334;13.528;2023-06-10T02:59:00;102400.0;;;14.4;52.7
78679;BME280;67994;59.334;13.528;2023-06-10T03:00:00;102400.0;;;14.8;51.8
78679;BME280;67994;59.334;13.528;2023-06-10T03:01:00;102400.0;;;14.7;51.9
78679;BME280;67994;59.334;13.528;2023-06-10T03:02:00;102400.0;;;14.9;51.6
78679;BME280;67994;59.334;13.528;2023-06-10T03:03:00;102400.0;;;15.0;51.4
78679;BME280;67994;59.334;13.528;2023-06-10T03:04:00;102400.0;;;15.1;51.2
78679;BME280;67994;59.334;13.528;2023-06-10T03:05:00;102400.0;;;15.1;51.2
78679;BME280;67994;59.334;13.528;2023-06-10T03:06:00;102400.0;;;14.9;51.7
78679;BME280;67994;59.334;13.528;2023-06-10T03:07:00;102400.0;;;15.2;51.4
78679;BME280;67994;59.334;13.528;2023-06-10T03:08:00;102400.0;;;15.2;51.3
78679;BME280;67994;59.334;13.528;2023-06-10T03:09:00;102400.0;;;15.4;50.7
78679;BME280;67994;59.334;13.528;2023-06-10T03:10:00;102400.0;;;15.5;50.6
78679;BME280;67994;59.334;13.528;2023-06-10T03:11:00;102400.0;;;15.4;50.9
78679;BME280;67994;59.334;13.528;2023-06-10T03:12:00;102400.0;;;15.7;50.3
78679;BME280;67994;59.334;13.528;2023-06-10T03:13:00;102400.0;;;15.8;49.8
78679;BME280;67994;59.334;13.528;2023-06-10T03:14:00;102400.0;;;15.8;50.1
78679;BME280;67994;59.334;13.528;2023-06-10T03:15:00;102400.0;;;15.7;50.3
78679;BME280;67994;59.334;13.528;2023-06-10T03:16:00;102400.0;;;15.7;50.1
78679;BME280;67994;59.334;13.528;2023-06-10T03:17:00;102400.0;;;15.8;50.2
78679;BME280;67994;59.334;13.528;2023-06-10T03:18:00;102400.0;;;15.7;50.2
78679;BME280;67994;59.334;13.528;2023-06-10T03:19:00;102400.0;;;15.9;49.6
78679;BME280;67994;59.334;13.528;2023-06-10T03:20:00;102400.0;;;16.3;49.2
78679;BME280;67994;59.334;13.528;2023-06-10T03:21:00;102400.0;;;16.2;49.1
78679;BME280;67994;59.334;13.528;2023-06-10T03:22:07;102400.0;;;16.2;48.9
78679;BME280;67994;59.334;13.528;2023-06-10T03:23:00;102400.0;;;16.0;49.4
78679;BME280;67994;59.334;13.528;2023-06-10T03:24:00;102400.0;;;16.3;48.8
78679;BME280;67994;59.334;13.528;2023-06-10T03:25:00;102400.0;;;16.4;48.6
78679;BME280;67994;59.334;13.528;2023-06-10T03:26:00;102400.0;;;16.3;48.9
78679;BME280;67994;59.334;13.528;2023-06-10T03:27:00;102400.0;;;16.5;48.7
78679;BME280;67994;59.334;13.528;2023-06-10T03:28:00;102400.0;;;16.4;48.7
78679;BME280;67994;59.334;13.528;2023-06-10T03:29:00;102400.0;;;16.8;47.9
78679;BME280;67994;59.334;13.528;2023-06-10T03:30:00;102400.0;;;17.1;47.2
78679;BME280;67994;59.334;13.528;2023-06-10T03:31:00;102400.0;;;17.1;47.3
78679;BME280;67994;59.334;13.528;2023-06-10T03:32:00;102400.0;;;16.9;47.2
78679;BME280;67994;59.334;13.528;2023-06-10T03:33:00;102400.0;;;16.7;47.5
78679;BME280;67994;59.334;13.528;2023-06-10T03:34:00;102400.0;;;17.2;46.7
78679;BME280;67994;59.334;13.528;2023-06-10T03:35:00;102400.0;;;17.5;46.5
78679;BME280;67994;59.334;13.528;2023-06-10T03:36:00;102400.0;;;17.7;45.9
78679;BME280;67994;59.334;13.528;2023-06-10T03:37:00;102400.0;;;17.5;46.4
78679;BME280;67994;59.334;13.528;2023-06-10T03:38:00;102400.0;;;17.6;46.3
78679;BME280;67994;59.334;13.528;2023-06-10T03:39:00;102400.0;;;17.3;46.7
78679;BME280;67994;59.334;13.528;2023-06-10T03:40:00;102400.0;;;17.3;46.4
78679;BME280;67994;59.334;13.528;2023-06-10T03:41:00;102400.0;;;17.0;47.2
78679;BME280;67994;59.334;13.528;2023-06-10T03:42:00;102400.0;;;16.8;47.7
78679;BME280;67994;59.334;13.528;2023-06-10T03:43:00;102400.0;;;16.5;48.4
78679;BME280;67994;59.334;13.528;2023-06-10T03:44:00;102400.0;;;16.1;49.1
78679;BME280;67994;59.334;13.528;2023-06-10T03:45:00;102400.0;;;16.2;49.4
78679;BME280;67994;59.334;13.528;2023-06-10T03:46:00;102400.0;;;16.9;48.1
78679;BME280;67994;59.334;13.528;2023-06-10T03:47:00;102400.0;;;17.4;47.5
78679;BME280;67994;59.334;13.528;2023-06-10T03:48:00;102400.0;;;16.7;49.0
78679;BME280;67994;59.334;13.528;2023-06-10T03:49:00;102400.0;;;17.3;48.2
78679;BME280;67994;59.334;13.528;2023-06-10T03:50:00;102400.0;;;17.8;46.9
78679;BME280;67994;59.334;13.528;2023-06-10T03:51:00;102400.0;;;17.5;48.0
78679;BME280;67994;59.334;13.528;2023-06-10T03:52:00;102400.0;;;17.2;48.6
78679;BME280;67994;59.334;13.528;2023-06-10T03:53:01;102400.0;;;17.1;49.2
78679;BME280;67994;59.334;13.528;2023-06-10T03:54:00;102400.0;;;17.4;48.5
78679;BME280;67994;59.334;13.528;2023-06-10T03:55:00;102400.0;;;17.4;48.6
78679;BME280;67994;59.334;13.528;2023-06-10T03:56:00;102400.0;;;16.1;52.1
78679;BME280;67994;59.334;13.528;2023-06-10T03:57:00;102400.0;;;16.5;51.5
78679;BME280;67994;59.334;13.528;2023-06-10T03:58:00;102400.0;;;16.4;52.1
78679;BME280;67994;59.334;13.528;2023-06-10T03:59:00;102400.0;;;16.5;51.9
78679;BME280;67994;59.334;13.528;2023-06-10T04:00:00;102400.0;;;15.5;54.3
78679;BME280;67994;59.334;13.528;2023-06-10T04:01:00;102400.0;;;15.8;53.6
78679;BME280;67994;59.334;13.528;2023-06-10T04:02:00;102400.0;;;15.4;54.6
78679;BME280;67994;59.334;13.528;2023-06-10T04:03:00;102400.0;;;15.7;53.9
78679;BME280;67994;59.334;13.528;2023-06-10T04:04:00;102400.0;;;16.2;53.0
78679;BME280;67994;59.334;13.528;2023-06-10T04:05:00;102400.0;;;14.9;55.9
78679;BME280;67994;59.334;13.528;2023-06-10T04:06:00;102400.0;;;15.6;54.5
78679;BME280;67994;59.334;13.528;2023-06-10T04:07:00;102400.0;;;15.2;55.2
78679;BME280;67994;59.334;13.528;2023-06-10T04:08:00;102400.0;;;15.0;55.6
78679;BME280;67994;59.334;13.528;2023-06-10T04:09:00;102400.0;;;15.7;54.0
78679;BME280;67994;59.334;13.528;2023-06-10T04:10:00;102400.0;;;16.5;52.4
78679;BME280;67994;59.334;13.528;2023-06-10T04:11:00;102400.0;;;16.5;52.2
78679;BME280;67994;59.334;13.528;2023-06-10T04:12:00;102400.0;;;16.8;51.3
78679;BME280;67994;59.334;13.528;2023-06-10T04:13:00;102400.0;;;16.4;52.2
78679;BME280;67994;59.334;13.528;2023-06-10T04:14:00;102400.0;;;16.7;51.0
78679;BME280;67994;59.334;13.528;2023-06-10T04:15:00;102400.0;;;16.6;51.4
78679;BME280;67994;59.334;13.528;2023-06-10T04:16:00;102400.0;;;15.7;53.6
78679;BME280;67994;59.334;13.528;2023-06-10T04:17:00;102400.0;;;15.9;53.2
78679;BME280;67994;59.334;13.528;2023-06-10T04:18:00;102400.0;;;16.4;51.8
78679;BME280;67994;59.334;13.528;2023-06-10T04:19:00;102400.0;;;15.8;53.3
78679;BME280;67994;59.334;13.528;2023-06-10T04:20:00;102400.0;;;15.0;55.1
78679;BME280;67994;59.334;13.528;2023-06-10T04:21:00;102400.0;;;15.3;54.5
78679;BME280;67994;59.334;13.528;2023-06-10T04:22:00;102400.0;;;16.1;52.1
78679;BME280;67994;59.334;13.528;2023-06-10T04:23:00;102400.0;;;16.7;51.2
78679;BME280;67994;59.334;13.528;2023-06-10T04:24:00;102400.0;;;17.1;50.3
78679;BME280;67994;59.334;13.528;2023-06-10T04:25:00;102400.0;;;15.7;53.0
78679;BME280;67994;59.334;13.528;2023-06-10T04:26:00;102400.0;;;15.0;54.5
78679;BME280;67994;59.334;13.528;2023-06-10T04:27:00;102400.0;;;15.5;53.1
78679;BME280;67994;59.334;13.528;2023-06-10T04:28:00;102400.0;;;16.3;51.4
78679;BME280;67994;59.334;13.528;2023-06-10T04:29:00;102400.0;;;16.6;50.7
78679;BME280;67994;59.334;13.528;2023-06-10T04:30:00;102400.0;;;17.0;50.2
78679;BME280;67994;59.334;13.528;2023-06-10T04:31:00;102400.0;;;17.1;49.7
78679;BME280;67994;59.334;13.528;2023-06-10T04:32:00;102400.0;;;16.9;50.0
78679;BME280;67994;59.334;13.528;2023-06-10T04:33:00;102400.0;;;16.8;49.9
78679;BME280;67994;59.334;13.528;2023-06-10T04:34:00;102400.0;;;17.1;49.4
78679;BME280;67994;59.334;13.528;2023-06-10T04:35:00;102400.0;;;16.9;49.9
78679;BME280;67994;59.334;13.528;2023-06-10T04:36:00;102400.0;;;16.2;51.5
78679;BME280;67994;59.334;13.528;2023-06-10T04:37:00;102400.0;;;16.6;50.6
78679;BME280;67994;59.334;13.528;2023-06-10T04:38:00;102400.0;;;16.3;50.8
78679;BME280;67994;59.334;13.528;2023-06-10T04:39:00;102400.0;;;15.4;53.5
78679;BME280;67994;59.334;13.528;2023-06-10T04:40:00;102400.0;;;15.4;52.8
78679;BME280;67994;59.334;13.528;2023-06-10T04:41:00;102400.0;;;16.1;51.5
78679;BME280;67994;59.334;13.528;2023-06-10T04:42:00;102400.0;;;16.2;51.2
78679;BME280;67994;59.334;13.528;2023-06-10T04:43:00;102400.0;;;15.9;52.3
78679;BME280;67994;59.334;13.528;2023-06-10T04:44:00;102400.0;;;14.6;54.6
78679;BME280;67994;59.334;13.528;2023-06-10T04:45:00;102400.0;;;15.4;53.1
78679;BME280;67994;59.334;13.528;2023-06-10T04:46:00;102400.0;;;15.4;53.3
78679;BME280;67994;59.334;13.528;2023-06-10T04:47:00;102400.0;;;15.8;52.1
78679;BME280;67994;59.334;13.528;2023-06-10T04:48:00;102400.0;;;16.1;51.3
78679;BME280;67994;59.334;13.528;2023-06-10T04:49:00;102400.0;;;16.5;50.5
78679;BME280;67994;59.334;13.528;2023-06-10T04:50:01;102400.0;;;16.1;50.8
78679;BME280;67994;59.334;13.528;2023-06-10T04:51:00;102400.0;;;16.4;50.2
78679;BME280;67994;59.334;13.528;2023-06-10T04:52:00;102400.0;;;16.6;49.7
78679;BME280;67994;59.334;13.528;2023-06-10T04:53:00;102400.0;;;16.5;49.8
78679;BME280;67994;59.334;13.528;2023-06-10T04:54:00;102400.0;;;16.7;49.5
78679;BME280;67994;59.334;13.528;2023-06-10T04:55:00;102400.0;;;16.4;49.8
78679;BME280;67994;59.334;13.528;2023-06-10T04:56:00;102400.0;;;16.5;49.8
78679;BME280;67994;59.334;13.528;2023-06-10T04:57:00;102400.0;;;16.4;50.2
78679;BME280;67994;59.334;13.528;2023-06-10T04:58:00;102400.0;;;16.1;50.5
78679;BME280;67994;59.334;13.528;2023-06-10T04:59:00;102400.0;;;15.3;52.5
78679;BME280;67994;59.334;13.528;2023-06-10T05:00:00;102400.0;;;14.9;53.4
78679;BME280;67994;59.334;13.528;2023-06-10T05:01:00;102400.0;;;14.6;53.9
78679;BME280;67994;59.334;13.528;2023-06-10T05:02:00;102400.0;;;15.5;52.2
78679;BME280;67994;59.334;13.528;2023-06-10T05:03:00;102400.0;;;16.0;50.8
78679;BME280;67994;59.334;13.528;2023-06-10T05:04:00;102400.0;;;15.8;51.0
78679;BME280;67994;59.334;13.528;2023-06-10T05:05:00;102400.0;;;15.4;52.1
78679;BME280;67994;59.334;13.528;2023-06-10T05:06:00;102400.0;;;14.7;53.4
78679;BME280;67994;59.334;13.528;2023-06-10T05:07:00;102400.0;;;15.1;52.5
78679;BME280;67994;59.334;13.528;2023-06-10T05:08:00;102400.0;;;16.0;50.9
78679;BME280;67994;59.334;13.528;2023-06-10T05:09:00;102400.0;;;15.9;51.1
78679;BME280;67994;59.334;13.528;2023-06-10T05:10:00;102400.0;;;15.9;50.9
78679;BME280;67994;59.334;13.528;2023-06-10T05:11:00;102400.0;;;16.1;50.5
78679;BME280;67994;59.334;13.528;2023-06-10T05:12:00;102400.0;;;16.6;49.8
78679;BME280;67994;59.334;13.528;2023-06-10T05:13:00;102400.0;;;16.6;49.8
78679;BME280;67994;59.334;13.528;2023-06-10T05:14:00;102400.0;;;16.7;49.3
78679;BME280;67994;59.334;13.528;2023-06-10T05:15:00;102400.0;;;16.7;49.4
78679;BME280;67994;59.334;13.528;2023-06-10T05:16:00;102400.0;;;16.7;49.1
78679;BME280;67994;59.334;13.528;2023-06-10T05:17:00;102400.0;;;16.2;50.1
78679;BME280;67994;59.334;13.528;2023-06-10T05:18:00;102400.0;;;15.4;51.2
78679;BME280;67994;59.334;13.528;2023-06-10T05:19:00;102400.0;;;15.7;50.9
78679;BME280;67994;59.334;13.528;2023-06-10T05:20:00;102400.0;;;16.0;49.9
78679;BME280;67994;59.334;13.528;2023-06-10T05:21:00;102400.0;;;16.3;49.3